createdAt,value
2022-09-26T00:01:37.762Z,4.73
2022-09-26T00:04:15.733Z,4.83
2022-09-26T00:06:43.592Z,5.00
2022-09-26T00:09:11.036Z,5.30
2022-09-26T00:11:38.674Z,5.20
2022-09-26T00:14:11.661Z,5.17
2022-09-26T00:16:38.959Z,5.57
2022-09-26T00:19:07.170Z,5.93
2022-09-26T00:21:34.543Z,5.37
2022-09-26T00:24:02.619Z,6.07
2022-09-26T00:26:31.727Z,5.80
2022-09-26T00:29:04.381Z,5.30
2022-09-26T00:31:35.627Z,5.80
2022-09-26T00:34:03.513Z,5.30
2022-09-26T00:36:37.876Z,4.90
2022-09-26T00:39:08.376Z,5.00
2022-09-26T00:41:37.164Z,5.47
2022-09-26T00:44:46.275Z,4.60
2022-09-26T00:47:32.885Z,3.90
2022-09-26T00:50:06.371Z,4.60
2022-09-26T00:52:46.972Z,4.67
2022-09-26T00:55:18.740Z,4.30
2022-09-26T00:57:53.328Z,4.03
2022-09-26T01:00:20.655Z,4.17
2022-09-26T01:02:48.626Z,4.50
2022-09-26T01:05:19.065Z,4.30
2022-09-26T01:07:46.228Z,4.00
2022-09-26T01:10:13.697Z,4.70
2022-09-26T01:12:40.598Z,5.60
2022-09-26T01:15:09.092Z,3.80
2022-09-26T01:17:39.258Z,4.30
2022-09-26T01:20:40.449Z,4.03
2022-09-26T01:23:49.132Z,4.57
2022-09-26T01:26:59.101Z,4.10
2022-09-26T01:30:01.912Z,4.17
2022-09-26T01:33:00.527Z,4.10
2022-09-26T01:36:15.287Z,3.80
2022-09-26T01:39:26.577Z,3.27
2022-09-26T01:42:52.569Z,3.17
2022-09-26T01:45:23.037Z,3.03
2022-09-26T01:48:03.991Z,3.27
2022-09-26T01:50:53.697Z,3.90
2022-09-26T01:53:48.892Z,3.00
2022-09-26T01:56:25.695Z,3.97
2022-09-26T01:59:05.579Z,3.47
2022-09-26T02:01:39.509Z,3.27
2022-09-26T02:04:12.449Z,3.90
2022-09-26T02:06:54.597Z,3.40
2022-09-26T02:09:39.503Z,3.23
2022-09-26T02:12:14.687Z,3.07
2022-09-26T02:14:44.836Z,3.17
2022-09-26T02:17:18.019Z,3.33
2022-09-26T02:20:01.810Z,3.37
2022-09-26T02:22:33.953Z,2.43
2022-09-26T02:25:02.757Z,2.70
2022-09-26T02:27:30.050Z,2.60
2022-09-26T02:29:57.563Z,3.20
2022-09-26T02:32:32.825Z,3.30
2022-09-26T02:35:01.365Z,3.87
2022-09-26T02:37:32.224Z,3.03
2022-09-26T02:39:59.112Z,3.97
2022-09-26T02:42:49.205Z,3.50
2022-09-26T02:45:41.172Z,3.97
2022-09-26T02:48:18.950Z,3.60
2022-09-26T02:51:40.645Z,4.10
2022-09-26T02:54:39.630Z,3.77
2022-09-26T02:57:34.852Z,3.47
2022-09-26T03:00:25.630Z,4.13
2022-09-26T03:03:14.014Z,3.90
2022-09-26T03:05:44.479Z,3.97
2022-09-26T03:08:26.057Z,4.40
2022-09-26T03:10:57.026Z,4.53
2022-09-26T03:13:25.839Z,4.90
2022-09-26T03:15:56.303Z,3.67
2022-09-26T03:18:36.807Z,3.60
2022-09-26T03:21:03.804Z,5.30
2022-09-26T03:23:31.161Z,4.47
2022-09-26T03:26:10.188Z,4.10
2022-09-26T03:28:42.629Z,4.30
2022-09-26T03:31:11.405Z,5.27
2022-09-26T03:33:49.609Z,4.33
2022-09-26T03:36:16.599Z,4.67
2022-09-26T03:38:43.557Z,3.90
2022-09-26T03:41:27.696Z,3.90
2022-09-26T03:44:13.367Z,3.60
2022-09-26T03:47:00.233Z,4.80
2022-09-26T03:49:27.405Z,4.33
2022-09-26T03:51:54.341Z,3.93
2022-09-26T03:54:21.221Z,3.90
2022-09-26T03:56:49.147Z,4.00
2022-09-26T03:59:17.016Z,3.13
2022-09-26T04:01:45.260Z,3.93
2022-09-26T04:04:15.214Z,3.57
2022-09-26T04:06:44.845Z,3.70
2022-09-26T04:09:16.734Z,3.50
2022-09-26T04:11:47.082Z,4.33
2022-09-26T04:14:14.009Z,3.70
2022-09-26T04:16:42.396Z,4.13
2022-09-26T04:19:17.090Z,3.80
2022-09-26T04:21:44.008Z,3.63
2022-09-26T04:24:15.842Z,3.60
2022-09-26T04:26:44.244Z,3.00
2022-09-26T04:29:11.651Z,3.23
2022-09-26T04:31:53.741Z,3.23
2022-09-26T04:34:27.395Z,3.73
2022-09-26T04:36:54.891Z,3.27
2022-09-26T04:39:22.225Z,3.87
2022-09-26T04:41:49.137Z,3.83
2022-09-26T04:44:16.109Z,3.03
2022-09-26T04:46:43.005Z,3.23
2022-09-26T04:49:11.241Z,2.90
2022-09-26T04:51:38.243Z,3.93
2022-09-26T04:54:05.425Z,3.47
2022-09-26T04:56:37.178Z,3.67
2022-09-26T04:59:05.737Z,2.90
2022-09-26T05:01:42.224Z,3.43
2022-09-26T05:04:16.982Z,3.03
2022-09-26T05:06:43.854Z,4.70
2022-09-26T05:09:21.900Z,3.70
2022-09-26T05:11:53.941Z,3.90
2022-09-26T05:14:20.923Z,3.30
2022-09-26T05:16:49.297Z,4.00
2022-09-26T05:19:17.350Z,3.60
2022-09-26T05:22:04.402Z,3.90
2022-09-26T05:24:49.579Z,3.67
2022-09-26T05:27:18.924Z,4.03
2022-09-26T05:29:45.888Z,4.13
2022-09-26T05:32:13.826Z,3.40
2022-09-26T05:34:42.530Z,4.57
2022-09-26T05:37:13.976Z,4.40
2022-09-26T05:39:59.899Z,4.10
2022-09-26T05:42:27.894Z,4.17
2022-09-26T05:44:54.797Z,3.73
2022-09-26T05:47:21.886Z,4.10
2022-09-26T05:49:48.911Z,3.83
2022-09-26T05:52:19.022Z,4.60
2022-09-26T05:54:46.137Z,3.53
2022-09-26T05:57:53.125Z,3.93
2022-09-26T06:00:22.337Z,7.10
2022-09-26T06:02:56.519Z,4.70
2022-09-26T06:05:33.603Z,4.23
2022-09-26T06:08:17.407Z,4.17
2022-09-26T06:11:15.418Z,3.60
2022-09-26T06:13:45.550Z,3.83
2022-09-26T06:16:20.215Z,2.80
2022-09-26T06:18:50.545Z,3.30
2022-09-26T06:21:20.127Z,2.97
2022-09-26T06:23:50.769Z,2.63
2022-09-26T06:26:23.556Z,2.40
2022-09-26T06:29:00.025Z,3.30
2022-09-26T06:31:30.237Z,3.50
2022-09-26T06:34:29.184Z,3.30
2022-09-26T06:37:18.956Z,3.90
2022-09-26T06:39:45.892Z,3.30
2022-09-26T06:42:13.072Z,3.17
2022-09-26T06:45:10.561Z,3.50
2022-09-26T06:48:02.399Z,2.70
2022-09-26T06:50:32.567Z,3.30
2022-09-26T06:53:10.873Z,3.20
2022-09-26T06:55:37.963Z,3.40
2022-09-26T06:58:04.915Z,3.57
2022-09-26T07:00:46.718Z,3.10
2022-09-26T07:03:28.654Z,3.50
2022-09-26T07:06:01.893Z,3.17
2022-09-26T07:08:57.467Z,2.80
2022-09-26T07:14:06.000Z,4.60
2022-09-26T07:16:33.224Z,3.37
2022-09-26T07:19:19.270Z,4.10
2022-09-26T07:22:01.688Z,4.07
2022-09-26T07:24:46.296Z,4.20
2022-09-26T07:27:14.129Z,4.43
2022-09-26T07:29:41.363Z,3.70
2022-09-26T07:32:08.286Z,4.90
2022-09-26T07:34:53.730Z,4.20
2022-09-26T07:37:20.653Z,4.67
2022-09-26T07:39:52.639Z,4.40
2022-09-26T07:42:21.697Z,4.70
2022-09-26T07:47:54.312Z,5.30
2022-09-26T07:50:47.110Z,4.17
2022-09-26T07:53:24.222Z,5.17
2022-09-26T07:56:16.800Z,4.40
2022-09-26T07:58:58.190Z,3.93
2022-09-26T08:01:54.517Z,4.37
2022-09-26T08:04:31.543Z,3.50
2022-09-26T08:06:59.513Z,3.90
2022-09-26T08:09:26.496Z,4.87
2022-09-26T08:12:11.857Z,4.20
2022-09-26T08:14:49.881Z,4.43
2022-09-26T08:17:25.957Z,4.40
2022-09-26T08:19:52.837Z,4.07
2022-09-26T08:22:19.996Z,3.97
2022-09-26T08:24:50.937Z,3.97
2022-09-26T08:27:35.457Z,4.20
2022-09-26T08:30:02.857Z,4.63
2022-09-26T08:32:32.246Z,4.30
2022-09-26T08:35:00.052Z,4.07
2022-09-26T08:37:32.956Z,3.60
2022-09-26T08:40:20.567Z,3.80
2022-09-26T08:43:46.452Z,3.97
2022-09-26T08:47:05.165Z,3.70
2022-09-26T08:50:15.065Z,3.97
2022-09-26T08:52:58.112Z,3.93
2022-09-26T08:55:32.825Z,4.30
2022-09-26T08:58:04.315Z,5.07
2022-09-26T09:00:34.675Z,3.80
2022-09-26T09:03:21.075Z,3.67
2022-09-26T09:06:07.955Z,4.20
2022-09-26T09:08:48.533Z,4.00
2022-09-26T09:12:02.473Z,3.57
2022-09-26T09:15:07.601Z,3.70
2022-09-26T09:18:19.585Z,3.33
2022-09-26T09:22:01.725Z,3.80
2022-09-26T09:24:59.521Z,3.13
2022-09-26T09:28:03.936Z,3.20
2022-09-26T09:30:56.235Z,2.63
2022-09-26T09:33:50.277Z,2.80
2022-09-26T09:36:57.071Z,3.17
2022-09-26T09:39:49.324Z,2.73
2022-09-26T09:42:34.976Z,2.27
2022-09-26T09:45:31.078Z,2.50
2022-09-26T09:47:58.199Z,2.53
2022-09-26T09:51:14.064Z,3.43
2022-09-26T09:54:31.654Z,2.83
2022-09-26T09:57:26.590Z,2.83
2022-09-26T10:00:19.442Z,3.00
2022-09-26T10:03:27.425Z,1.97
2022-09-26T10:06:01.360Z,2.50
2022-09-26T10:08:41.591Z,2.77
2022-09-26T10:11:41.461Z,2.70
2022-09-26T10:14:46.395Z,2.40
2022-09-26T10:17:31.923Z,2.47
2022-09-26T10:20:41.192Z,2.20
2022-09-26T10:23:31.156Z,1.93
2022-09-26T10:26:05.397Z,2.63
2022-09-26T10:28:49.657Z,2.20
2022-09-26T10:31:29.512Z,2.27
2022-09-26T10:34:31.662Z,2.67
2022-09-26T10:37:25.945Z,2.30
2022-09-26T10:40:20.429Z,1.93
2022-09-26T10:42:47.405Z,1.90
2022-09-26T10:45:27.113Z,1.60
2022-09-26T10:48:37.624Z,1.90
2022-09-26T10:51:45.416Z,1.93
2022-09-26T10:54:18.740Z,2.07
2022-09-26T10:56:54.233Z,2.07
2022-09-26T10:59:31.441Z,1.43
2022-09-26T11:01:59.437Z,1.70
2022-09-26T11:04:48.316Z,1.70
2022-09-26T11:07:39.800Z,1.73
2022-09-26T11:10:25.838Z,2.20
2022-09-26T11:13:18.707Z,2.10
2022-09-26T11:16:02.120Z,1.90
2022-09-26T11:18:46.017Z,2.07
2022-09-26T11:21:35.098Z,2.30
2022-09-26T11:24:37.310Z,1.77
2022-09-26T11:27:34.684Z,1.87
2022-09-26T11:30:20.846Z,2.13
2022-09-26T11:32:57.987Z,2.30
2022-09-26T11:36:29.459Z,1.60
2022-09-26T11:38:57.864Z,1.90
2022-09-26T11:41:48.802Z,1.90
2022-09-26T11:44:33.661Z,1.90
2022-09-26T11:48:06.662Z,2.30
2022-09-26T11:51:36.676Z,2.00
2022-09-26T11:54:33.388Z,1.60
2022-09-26T11:57:49.269Z,1.90
2022-09-26T12:00:27.286Z,1.80
2022-09-26T12:03:46.816Z,1.60
2022-09-26T12:06:55.965Z,1.80
2022-09-26T12:09:37.252Z,1.27
2022-09-26T12:12:15.883Z,1.43
2022-09-26T12:15:12.792Z,1.57
2022-09-26T12:18:15.773Z,1.87
2022-09-26T12:21:12.494Z,1.50
2022-09-26T12:23:54.483Z,1.60
2022-09-26T12:26:44.269Z,1.20
2022-09-26T12:29:24.554Z,1.37
2022-09-26T12:32:24.715Z,1.50
2022-09-26T12:35:04.094Z,1.43
2022-09-26T12:38:07.061Z,1.57
2022-09-26T12:40:53.378Z,1.67
2022-09-26T12:44:33.968Z,1.73
2022-09-26T12:47:26.893Z,1.57
2022-09-26T12:50:15.956Z,1.80
2022-09-26T12:53:14.000Z,1.60
2022-09-26T12:55:55.560Z,2.07
2022-09-26T12:58:58.982Z,1.90
2022-09-26T13:01:44.969Z,1.53
2022-09-26T13:04:59.142Z,1.93
2022-09-26T13:07:45.130Z,2.23
2022-09-26T13:10:36.529Z,1.63
2022-09-26T13:13:38.972Z,1.43
2022-09-26T13:17:05.866Z,1.60
2022-09-26T13:19:53.278Z,1.70
2022-09-26T13:22:41.264Z,1.53
2022-09-26T13:25:11.088Z,2.00
2022-09-26T13:27:57.928Z,1.63
2022-09-26T13:30:35.636Z,1.70
2022-09-26T13:33:29.957Z,1.43
2022-09-26T13:35:59.456Z,1.50
2022-09-26T13:38:53.373Z,1.40
2022-09-26T13:41:53.931Z,1.30
2022-09-26T13:44:29.552Z,1.77
2022-09-26T13:47:07.618Z,1.40
2022-09-26T13:49:58.602Z,1.43
2022-09-26T13:52:52.326Z,1.37
2022-09-26T13:55:21.829Z,1.57
2022-09-26T13:58:03.614Z,2.40
2022-09-26T14:00:30.393Z,1.53
2022-09-26T14:03:18.471Z,1.60
2022-09-26T14:05:49.201Z,1.53
2022-09-26T14:08:43.480Z,1.77
2022-09-26T14:11:34.206Z,1.70
2022-09-26T14:14:19.133Z,1.73
2022-09-26T14:16:47.939Z,1.80
2022-09-26T14:19:41.222Z,1.60
2022-09-26T14:22:20.673Z,2.07
2022-09-26T14:24:48.783Z,1.90
2022-09-26T14:27:28.831Z,1.83
2022-09-26T14:30:29.243Z,1.80
2022-09-26T14:33:02.670Z,1.73
2022-09-26T14:35:35.403Z,1.90
2022-09-26T14:38:15.415Z,1.80
2022-09-26T14:40:56.167Z,1.50
2022-09-26T14:43:28.135Z,1.93
2022-09-26T14:46:13.956Z,2.13
2022-09-26T14:48:43.133Z,1.60
2022-09-26T14:51:15.572Z,1.67
2022-09-26T14:53:48.374Z,1.70
2022-09-26T14:56:32.449Z,2.20
2022-09-26T14:59:39.939Z,2.90
2022-09-26T15:02:27.996Z,2.63
2022-09-26T15:05:09.689Z,2.70
2022-09-26T15:07:47.034Z,2.33
2022-09-26T15:10:13.860Z,2.30
2022-09-26T15:12:50.008Z,2.70
2022-09-26T15:15:47.261Z,2.20
2022-09-26T15:18:28.214Z,2.10
2022-09-26T15:21:04.749Z,2.10
2022-09-26T15:23:34.667Z,2.43
2022-09-26T15:26:02.792Z,2.00
2022-09-26T15:28:34.482Z,2.00
2022-09-26T15:31:22.614Z,2.60
2022-09-26T15:34:04.364Z,4.63
2022-09-26T15:36:34.460Z,2.20
2022-09-26T15:39:25.140Z,2.80
2022-09-26T15:42:10.228Z,2.60
2022-09-26T15:44:46.127Z,2.10
2022-09-26T15:47:29.188Z,2.30
2022-09-26T15:50:12.302Z,3.93
2022-09-26T15:52:49.244Z,12.17
2022-09-26T15:55:20.975Z,4.20
2022-09-26T15:57:51.839Z,3.00
2022-09-26T16:00:19.240Z,3.97
2022-09-26T16:02:47.009Z,2.67
2022-09-26T16:05:14.975Z,2.83
2022-09-26T16:07:49.171Z,2.37
2022-09-26T16:10:28.495Z,2.10
2022-09-26T16:12:58.245Z,3.90
2022-09-26T16:15:29.728Z,3.00
2022-09-26T16:17:58.669Z,2.40
2022-09-26T16:20:31.658Z,2.90
2022-09-26T16:23:04.743Z,3.17
2022-09-26T16:25:47.567Z,2.93
2022-09-26T16:28:15.604Z,2.60
2022-09-26T16:30:45.694Z,2.03
2022-09-26T16:33:32.320Z,2.53
2022-09-26T16:36:24.411Z,2.30
2022-09-26T16:39:03.771Z,1.97
2022-09-26T16:44:40.308Z,2.20
2022-09-26T16:47:42.879Z,2.10
2022-09-26T16:50:31.162Z,3.37
2022-09-26T16:52:58.250Z,1.93
2022-09-26T16:55:26.347Z,2.20
2022-09-26T16:58:02.057Z,2.73
2022-09-26T17:00:52.589Z,2.50
2022-09-26T17:03:31.032Z,2.40
2022-09-26T17:05:59.982Z,5.67
2022-09-26T17:08:28.250Z,5.03
2022-09-26T17:11:00.216Z,4.90
2022-09-26T17:13:31.013Z,3.40
2022-09-26T17:16:01.033Z,2.60
2022-09-26T17:18:29.366Z,2.40
2022-09-26T17:20:58.868Z,2.07
2022-09-26T17:23:42.306Z,2.20
2022-09-26T17:26:19.784Z,1.80
2022-09-26T17:28:46.850Z,2.53
2022-09-26T17:31:19.932Z,2.33
2022-09-26T17:33:51.459Z,1.90
2022-09-26T17:36:29.283Z,1.90
2022-09-26T17:38:59.402Z,1.83
2022-09-26T17:41:27.821Z,2.47
2022-09-26T17:44:00.965Z,2.60
2022-09-26T17:46:28.810Z,1.93
2022-09-26T17:48:56.349Z,2.37
2022-09-26T17:51:24.278Z,2.00
2022-09-26T17:53:52.197Z,1.67
2022-09-26T17:56:20.188Z,2.27
2022-09-26T17:58:48.800Z,2.03
2022-09-26T18:01:30.337Z,2.10
2022-09-26T18:04:03.824Z,1.90
2022-09-26T18:06:32.870Z,2.10
2022-09-26T18:09:10.137Z,1.80
2022-09-26T18:11:38.348Z,2.47
2022-09-26T18:14:06.810Z,1.83
2022-09-26T18:16:33.743Z,2.00
2022-09-26T18:19:04.696Z,1.97
2022-09-26T18:21:34.907Z,1.83
2022-09-26T18:24:06.389Z,2.47
2022-09-26T18:26:42.224Z,2.43
2022-09-26T18:29:13.501Z,2.13
2022-09-26T18:31:41.645Z,2.10
2022-09-26T18:34:19.883Z,2.17
2022-09-26T18:36:48.869Z,1.90
2022-09-26T18:39:15.940Z,2.10
2022-09-26T18:41:45.016Z,2.70
2022-09-26T18:44:20.195Z,2.60
2022-09-26T18:46:49.023Z,1.77
2022-09-26T18:49:17.393Z,1.53
2022-09-26T18:51:45.802Z,2.03
2022-09-26T18:54:16.153Z,1.60
2022-09-26T18:57:09.316Z,1.80
2022-09-26T18:59:36.194Z,2.00
2022-09-26T19:02:04.762Z,15.57
2022-09-26T19:04:32.335Z,6.93
2022-09-26T19:07:01.454Z,3.20
2022-09-26T19:09:34.363Z,2.30
2022-09-26T19:12:02.465Z,1.80
2022-09-26T19:14:31.129Z,2.30
2022-09-26T19:16:58.421Z,2.07
2022-09-26T19:19:26.662Z,2.10
2022-09-26T19:22:11.732Z,1.80
2022-09-26T19:24:50.548Z,1.93
2022-09-26T19:27:23.774Z,2.07
2022-09-26T19:30:01.960Z,2.00
2022-09-26T19:32:45.055Z,2.47
2022-09-26T19:35:17.000Z,2.10
2022-09-26T19:37:43.870Z,2.20
2022-09-26T19:40:16.413Z,2.23
2022-09-26T19:42:43.404Z,2.40
2022-09-26T19:45:12.960Z,2.03
2022-09-26T19:47:43.546Z,2.50
2022-09-26T19:50:19.770Z,2.07
2022-09-26T19:52:47.623Z,1.83
2022-09-26T19:55:18.801Z,1.93
2022-09-26T19:57:45.729Z,2.53
2022-09-26T20:00:15.691Z,2.10
2022-09-26T20:02:42.791Z,2.90
2022-09-26T20:05:20.261Z,1.80
2022-09-26T20:07:47.695Z,1.87
2022-09-26T20:10:21.612Z,2.07
2022-09-26T20:12:48.630Z,2.13
2022-09-26T20:15:18.015Z,2.30
2022-09-26T20:17:45.857Z,2.90
2022-09-26T20:20:20.349Z,2.43
2022-09-26T20:22:47.508Z,2.53
2022-09-26T20:25:25.847Z,2.23
2022-09-26T20:27:54.388Z,2.23
2022-09-26T20:30:39.810Z,2.27
2022-09-26T20:33:07.161Z,2.43
2022-09-26T20:35:38.228Z,2.40
2022-09-26T20:38:07.980Z,1.90
2022-09-26T20:40:35.619Z,2.10
2022-09-26T20:43:10.205Z,2.00
2022-09-26T20:45:40.833Z,2.33
2022-09-26T20:48:17.297Z,2.43
2022-09-26T20:50:44.440Z,2.10
2022-09-26T20:53:29.543Z,2.20
2022-09-26T20:55:56.457Z,2.60
2022-09-26T20:58:23.935Z,2.37
2022-09-26T21:00:52.948Z,2.87
2022-09-26T21:03:25.088Z,2.60
2022-09-26T21:05:52.308Z,2.10
2022-09-26T21:08:28.968Z,2.33
2022-09-26T21:10:56.378Z,2.73
2022-09-26T21:13:23.595Z,2.50
2022-09-26T21:15:52.372Z,2.57
2022-09-26T21:18:29.225Z,3.00
2022-09-26T21:21:04.374Z,2.70
2022-09-26T21:23:54.646Z,2.33
2022-09-26T21:26:25.130Z,2.40
2022-09-26T21:28:53.733Z,2.33
2022-09-26T21:31:31.627Z,3.10
2022-09-26T21:34:00.209Z,3.00
2022-09-26T21:36:35.440Z,3.10
2022-09-26T21:39:02.479Z,2.73
2022-09-26T21:41:29.865Z,2.80
2022-09-26T21:44:02.723Z,3.07
2022-09-26T21:46:29.652Z,2.90
2022-09-26T21:48:56.542Z,2.93
2022-09-26T21:51:27.587Z,3.10
2022-09-26T21:54:34.647Z,3.10
2022-09-26T21:57:13.097Z,3.20
2022-09-26T21:59:40.860Z,2.83
2022-09-26T22:02:07.816Z,3.20
2022-09-26T22:04:34.916Z,3.10
2022-09-26T22:07:02.048Z,3.17
2022-09-26T22:09:28.941Z,2.50
2022-09-26T22:11:55.794Z,2.40
2022-09-26T22:14:22.667Z,2.40
2022-09-26T22:16:49.625Z,4.10
2022-09-26T22:19:16.934Z,2.80
2022-09-26T22:21:43.902Z,2.60
2022-09-26T22:24:11.133Z,3.23
2022-09-26T22:26:38.029Z,2.70
2022-09-26T22:29:05.150Z,3.20
2022-09-26T22:31:32.039Z,2.30
2022-09-26T22:34:00.097Z,3.07
2022-09-26T22:36:27.725Z,2.80
2022-09-26T22:38:54.857Z,3.17
2022-09-26T22:41:21.920Z,2.80
2022-09-26T22:43:49.283Z,2.77
2022-09-26T22:46:16.423Z,2.40
2022-09-26T22:48:46.782Z,2.80
2022-09-26T22:51:15.763Z,2.70
2022-09-26T22:53:44.455Z,2.70
2022-09-26T22:56:14.897Z,2.60
2022-09-26T22:58:49.248Z,3.30
2022-09-26T23:01:23.975Z,2.80
2022-09-26T23:03:54.633Z,2.70
2022-09-26T23:06:23.074Z,2.47
2022-09-26T23:08:50.915Z,2.97
2022-09-26T23:11:18.363Z,3.03
2022-09-26T23:13:46.351Z,2.80
2022-09-26T23:16:17.168Z,3.10
2022-09-26T23:18:44.767Z,2.87
2022-09-26T23:21:14.920Z,3.97
2022-09-26T23:23:51.032Z,2.67
2022-09-26T23:26:30.218Z,2.53
2022-09-26T23:28:58.395Z,3.17
2022-09-26T23:31:27.550Z,2.90
2022-09-26T23:33:55.016Z,3.10
2022-09-26T23:36:22.485Z,2.80
2022-09-26T23:38:49.921Z,2.90
2022-09-26T23:41:17.103Z,2.70
2022-09-26T23:43:46.246Z,3.40
2022-09-26T23:46:13.243Z,2.87
2022-09-26T23:48:40.404Z,3.00
2022-09-26T23:51:07.859Z,2.97
2022-09-26T23:53:35.386Z,2.97
2022-09-26T23:56:06.852Z,2.43
2022-09-26T23:58:34.224Z,3.00
